sensor_id;sensor_type;location;lat;lon;timestamp;P1;durP1;ratioP1;P2;durP2;ratioP2
24547;SDS011;12713;51.624;4.924;2023-06-04T00:01:56;3.50;;;1.60;;
24547;SDS011;12713;51.624;4.924;2023-06-04T00:04:22;4.07;;;1.88;;
24547;SDS011;12713;51.624;4.924;2023-06-04T00:06:48;2.90;;;1.58;;
24547;SDS011;12713;51.624;4.924;2023-06-04T00:09:14;3.47;;;1.67;;
24547;SDS011;12713;51.624;4.924;2023-06-04T00:11:40;2.60;;;1.55;;
24547;SDS011;12713;51.624;4.924;2023-06-04T00:14:06;3.15;;;1.40;;
24547;SDS011;12713;51.624;4.924;2023-06-04T00:16:32;2.97;;;1.60;;
24547;SDS011;12713;51.624;4.924;2023-06-04T00:19:00;2.78;;;1.60;;
24547;SDS011;12713;51.624;4.924;2023-06-04T00:21:27;3.30;;;1.80;;
24547;SDS011;12713;51.624;4.924;2023-06-04T00:23:53;3.80;;;1.80;;
24547;SDS011;12713;51.624;4.924;2023-06-04T00:26:19;2.60;;;1.80;;
24547;SDS011;12713;51.624;4.924;2023-06-04T00:28:45;3.60;;;2.13;;
24547;SDS011;12713;51.624;4.924;2023-06-04T00:31:11;2.05;;;1.80;;
24547;SDS011;12713;51.624;4.924;2023-06-04T00:33:38;2.80;;;1.90;;
24547;SDS011;12713;51.624;4.924;2023-06-04T00:36:04;3.63;;;1.33;;
24547;SDS011;12713;51.624;4.924;2023-06-04T00:38:30;2.53;;;1.60;;
24547;SDS011;12713;51.624;4.924;2023-06-04T00:40:56;3.40;;;1.73;;
24547;SDS011;12713;51.624;4.924;2023-06-04T00:43:22;2.90;;;1.92;;
24547;SDS011;12713;51.624;4.924;2023-06-04T00:45:52;2.63;;;1.70;;
24547;SDS011;12713;51.624;4.924;2023-06-04T00:48:19;5.80;;;2.05;;
24547;SDS011;12713;51.624;4.924;2023-06-04T00:50:45;3.20;;;1.83;;
24547;SDS011;12713;51.624;4.924;2023-06-04T00:53:12;3.70;;;2.00;;
24547;SDS011;12713;51.624;4.924;2023-06-04T00:55:38;3.28;;;2.17;;
24547;SDS011;12713;51.624;4.924;2023-06-04T00:58:04;2.03;;;1.40;;
24547;SDS011;12713;51.624;4.924;2023-06-04T01:00:30;3.95;;;1.80;;
24547;SDS011;12713;51.624;4.924;2023-06-04T01:02:57;3.00;;;2.10;;
24547;SDS011;12713;51.624;4.924;2023-06-04T01:05:37;3.65;;;2.08;;
24547;SDS011;12713;51.624;4.924;2023-06-04T01:08:07;3.35;;;1.83;;
24547;SDS011;12713;51.624;4.924;2023-06-04T01:10:34;3.65;;;2.45;;
24547;SDS011;12713;51.624;4.924;2023-06-04T01:13:00;3.58;;;2.22;;
24547;SDS011;12713;51.624;4.924;2023-06-04T01:15:26;3.40;;;2.00;;
24547;SDS011;12713;51.624;4.924;2023-06-04T01:17:54;3.67;;;2.15;;
24547;SDS011;12713;51.624;4.924;2023-06-04T01:20:36;3.63;;;2.05;;
24547;SDS011;12713;51.624;4.924;2023-06-04T01:23:08;2.47;;;1.80;;
24547;SDS011;12713;51.624;4.924;2023-06-04T01:25:37;5.43;;;2.00;;
24547;SDS011;12713;51.624;4.924;2023-06-04T01:28:09;3.60;;;1.83;;
24547;SDS011;12713;51.624;4.924;2023-06-04T01:30:38;2.33;;;1.77;;
24547;SDS011;12713;51.624;4.924;2023-06-04T01:33:08;4.55;;;1.70;;
24547;SDS011;12713;51.624;4.924;2023-06-04T01:35:34;4.38;;;2.10;;
24547;SDS011;12713;51.624;4.924;2023-06-04T01:38:00;5.60;;;2.03;;
24547;SDS011;12713;51.624;4.924;2023-06-04T01:40:26;5.93;;;2.58;;
24547;SDS011;12713;51.624;4.924;2023-06-04T01:42:53;2.90;;;1.92;;
24547;SDS011;12713;51.624;4.924;2023-06-04T01:45:20;3.70;;;2.53;;
24547;SDS011;12713;51.624;4.924;2023-06-04T01:47:46;4.25;;;1.80;;
24547;SDS011;12713;51.624;4.924;2023-06-04T01:50:12;6.82;;;2.00;;
24547;SDS011;12713;51.624;4.924;2023-06-04T01:52:38;4.50;;;2.85;;
24547;SDS011;12713;51.624;4.924;2023-06-04T01:55:06;3.55;;;2.15;;
24547;SDS011;12713;51.624;4.924;2023-06-04T01:57:32;4.55;;;2.40;;
24547;SDS011;12713;51.624;4.924;2023-06-04T01:59:58;4.35;;;2.20;;
24547;SDS011;12713;51.624;4.924;2023-06-04T02:02:25;3.40;;;2.50;;
24547;SDS011;12713;51.624;4.924;2023-06-04T02:04:52;4.32;;;2.05;;
24547;SDS011;12713;51.624;4.924;2023-06-04T02:07:18;3.65;;;2.33;;
24547;SDS011;12713;51.624;4.924;2023-06-04T02:09:47;4.38;;;1.80;;
24547;SDS011;12713;51.624;4.924;2023-06-04T02:12:13;4.03;;;2.38;;
24547;SDS011;12713;51.624;4.924;2023-06-04T02:14:40;5.80;;;2.03;;
24547;SDS011;12713;51.624;4.924;2023-06-04T02:17:10;5.90;;;2.15;;
24547;SDS011;12713;51.624;4.924;2023-06-04T02:19:41;2.90;;;2.28;;
24547;SDS011;12713;51.624;4.924;2023-06-04T02:22:13;4.72;;;2.55;;
24547;SDS011;12713;51.624;4.924;2023-06-04T02:24:39;3.88;;;2.28;;
24547;SDS011;12713;51.624;4.924;2023-06-04T02:27:09;4.30;;;2.17;;
24547;SDS011;12713;51.624;4.924;2023-06-04T02:29:35;2.85;;;1.95;;
24547;SDS011;12713;51.624;4.924;2023-06-04T02:32:02;4.10;;;2.50;;
24547;SDS011;12713;51.624;4.924;2023-06-04T02:34:28;3.35;;;2.45;;
24547;SDS011;12713;51.624;4.924;2023-06-04T02:36:54;3.42;;;2.38;;
24547;SDS011;12713;51.624;4.924;2023-06-04T02:39:20;3.78;;;2.35;;
24547;SDS011;12713;51.624;4.924;2023-06-04T02:41:46;6.15;;;2.50;;
24547;SDS011;12713;51.624;4.924;2023-06-04T02:44:12;4.00;;;2.53;;
24547;SDS011;12713;51.624;4.924;2023-06-04T02:46:38;5.25;;;2.47;;
24547;SDS011;12713;51.624;4.924;2023-06-04T02:49:05;4.68;;;2.72;;
24547;SDS011;12713;51.624;4.924;2023-06-04T02:51:31;5.43;;;2.60;;
24547;SDS011;12713;51.624;4.924;2023-06-04T02:53:57;3.92;;;2.33;;
24547;SDS011;12713;51.624;4.924;2023-06-04T02:56:23;4.43;;;2.20;;
24547;SDS011;12713;51.624;4.924;2023-06-04T02:58:54;5.90;;;2.83;;
24547;SDS011;12713;51.624;4.924;2023-06-04T03:01:24;3.05;;;2.20;;
24547;SDS011;12713;51.624;4.924;2023-06-04T03:03:51;3.47;;;2.35;;
24547;SDS011;12713;51.624;4.924;2023-06-04T03:06:17;5.60;;;2.50;;
24547;SDS011;12713;51.624;4.924;2023-06-04T03:08:45;7.88;;;2.92;;
24547;SDS011;12713;51.624;4.924;2023-06-04T03:11:12;4.38;;;2.28;;
24547;SDS011;12713;51.624;4.924;2023-06-04T03:13:38;5.07;;;2.20;;
24547;SDS011;12713;51.624;4.924;2023-06-04T03:16:04;2.70;;;2.10;;
24547;SDS011;12713;51.624;4.924;2023-06-04T03:18:37;4.13;;;2.72;;
24547;SDS011;12713;51.624;4.924;2023-06-04T03:21:04;4.03;;;2.85;;
24547;SDS011;12713;51.624;4.924;2023-06-04T03:23:30;3.83;;;2.40;;
24547;SDS011;12713;51.624;4.924;2023-06-04T03:25:56;2.95;;;2.30;;
24547;SDS011;12713;51.624;4.924;2023-06-04T03:28:22;6.07;;;2.80;;
24547;SDS011;12713;51.624;4.924;2023-06-04T03:30:48;3.88;;;2.20;;
24547;SDS011;12713;51.624;4.924;2023-06-04T03:33:14;4.95;;;2.47;;
24547;SDS011;12713;51.624;4.924;2023-06-04T03:35:40;3.20;;;2.33;;
24547;SDS011;12713;51.624;4.924;2023-06-04T03:38:07;4.93;;;2.55;;
24547;SDS011;12713;51.624;4.924;2023-06-04T03:40:33;4.38;;;2.85;;
24547;SDS011;12713;51.624;4.924;2023-06-04T03:42:59;4.93;;;3.30;;
24547;SDS011;12713;51.624;4.924;2023-06-04T03:45:25;4.20;;;2.95;;
24547;SDS011;12713;51.624;4.924;2023-06-04T03:47:51;5.15;;;2.90;;
24547;SDS011;12713;51.624;4.924;2023-06-04T03:50:18;8.15;;;2.72;;
24547;SDS011;12713;51.624;4.924;2023-06-04T03:52:44;3.55;;;3.10;;
24547;SDS011;12713;51.624;4.924;2023-06-04T03:55:10;7.63;;;2.90;;
24547;SDS011;12713;51.624;4.924;2023-06-04T03:57:36;3.50;;;2.40;;
24547;SDS011;12713;51.624;4.924;2023-06-04T04:00:06;5.05;;;2.65;;
24547;SDS011;12713;51.624;4.924;2023-06-04T04:02:34;5.40;;;2.67;;
24547;SDS011;12713;51.624;4.924;2023-06-04T04:05:00;4.75;;;3.08;;
24547;SDS011;12713;51.624;4.924;2023-06-04T04:07:26;4.20;;;2.70;;
24547;SDS011;12713;51.624;4.924;2023-06-04T04:09:52;3.40;;;2.40;;
24547;SDS011;12713;51.624;4.924;2023-06-04T04:12:18;4.15;;;2.63;;
24547;SDS011;12713;51.624;4.924;2023-06-04T04:14:44;6.05;;;2.95;;
24547;SDS011;12713;51.624;4.924;2023-06-04T04:17:11;3.42;;;2.60;;
24547;SDS011;12713;51.624;4.924;2023-06-04T04:19:38;4.10;;;2.58;;
24547;SDS011;12713;51.624;4.924;2023-06-04T04:22:04;3.90;;;2.90;;
24547;SDS011;12713;51.624;4.924;2023-06-04T04:24:30;3.58;;;3.10;;
24547;SDS011;12713;51.624;4.924;2023-06-04T04:26:59;3.70;;;2.22;;
24547;SDS011;12713;51.624;4.924;2023-06-04T04:29:25;5.68;;;2.70;;
24547;SDS011;12713;51.624;4.924;2023-06-04T04:31:52;5.25;;;2.35;;
24547;SDS011;12713;51.624;4.924;2023-06-04T04:34:21;3.97;;;2.10;;
24547;SDS011;12713;51.624;4.924;2023-06-04T04:36:49;5.20;;;2.40;;
24547;SDS011;12713;51.624;4.924;2023-06-04T04:39:17;3.35;;;2.53;;
24547;SDS011;12713;51.624;4.924;2023-06-04T04:41:43;7.45;;;2.85;;
24547;SDS011;12713;51.624;4.924;2023-06-04T04:44:09;4.57;;;2.25;;
24547;SDS011;12713;51.624;4.924;2023-06-04T04:46:34;5.30;;;2.20;;
24547;SDS011;12713;51.624;4.924;2023-06-04T04:49:00;10.10;;;2.80;;
24547;SDS011;12713;51.624;4.924;2023-06-04T04:51:26;4.30;;;2.70;;
24547;SDS011;12713;51.624;4.924;2023-06-04T04:53:53;5.25;;;2.60;;
24547;SDS011;12713;51.624;4.924;2023-06-04T04:56:19;4.85;;;2.38;;
24547;SDS011;12713;51.624;4.924;2023-06-04T04:58:47;4.20;;;2.78;;
24547;SDS011;12713;51.624;4.924;2023-06-04T05:01:13;3.67;;;2.05;;
24547;SDS011;12713;51.624;4.924;2023-06-04T05:03:39;3.15;;;2.42;;
24547;SDS011;12713;51.624;4.924;2023-06-04T05:06:05;6.40;;;3.05;;
24547;SDS011;12713;51.624;4.924;2023-06-04T05:08:31;4.95;;;2.70;;
24547;SDS011;12713;51.624;4.924;2023-06-04T05:10:57;4.50;;;2.65;;
24547;SDS011;12713;51.624;4.924;2023-06-04T05:13:23;6.90;;;2.97;;
24547;SDS011;12713;51.624;4.924;2023-06-04T05:15:49;4.22;;;3.05;;
24547;SDS011;12713;51.624;4.924;2023-06-04T05:18:17;3.85;;;2.22;;
24547;SDS011;12713;51.624;4.924;2023-06-04T05:20:45;4.28;;;2.00;;
24547;SDS011;12713;51.624;4.924;2023-06-04T05:23:11;5.28;;;3.13;;
24547;SDS011;12713;51.624;4.924;2023-06-04T05:25:37;7.25;;;3.10;;
24547;SDS011;12713;51.624;4.924;2023-06-04T05:28:03;5.88;;;3.40;;
24547;SDS011;12713;51.624;4.924;2023-06-04T05:30:31;3.92;;;2.58;;
24547;SDS011;12713;51.624;4.924;2023-06-04T05:32:58;5.05;;;2.88;;
24547;SDS011;12713;51.624;4.924;2023-06-04T05:35:24;4.38;;;2.40;;
24547;SDS011;12713;51.624;4.924;2023-06-04T05:37:50;3.42;;;2.78;;
24547;SDS011;12713;51.624;4.924;2023-06-04T05:40:18;3.95;;;2.65;;
24547;SDS011;12713;51.624;4.924;2023-06-04T05:42:44;5.07;;;2.78;;
24547;SDS011;12713;51.624;4.924;2023-06-04T05:45:10;5.32;;;2.97;;
24547;SDS011;12713;51.624;4.924;2023-06-04T05:47:36;4.45;;;2.25;;
24547;SDS011;12713;51.624;4.924;2023-06-04T05:50:02;3.20;;;2.13;;
24547;SDS011;12713;51.624;4.924;2023-06-04T05:52:29;6.50;;;2.53;;
24547;SDS011;12713;51.624;4.924;2023-06-04T05:54:55;4.85;;;3.10;;
24547;SDS011;12713;51.624;4.924;2023-06-04T05:57:21;6.13;;;2.50;;
24547;SDS011;12713;51.624;4.924;2023-06-04T05:59:47;4.20;;;2.42;;
24547;SDS011;12713;51.624;4.924;2023-06-04T06:02:13;3.28;;;2.33;;
24547;SDS011;12713;51.624;4.924;2023-06-04T06:04:39;6.32;;;2.65;;
24547;SDS011;12713;51.624;4.924;2023-06-04T06:07:05;4.72;;;2.67;;
24547;SDS011;12713;51.624;4.924;2023-06-04T06:09:31;4.20;;;2.38;;
24547;SDS011;12713;51.624;4.924;2023-06-04T06:11:57;4.85;;;2.45;;
24547;SDS011;12713;51.624;4.924;2023-06-04T06:14:23;7.00;;;3.08;;
24547;SDS011;12713;51.624;4.924;2023-06-04T06:16:49;4.30;;;2.80;;
24547;SDS011;12713;51.624;4.924;2023-06-04T06:19:16;4.35;;;2.10;;
24547;SDS011;12713;51.624;4.924;2023-06-04T06:21:42;7.25;;;3.10;;
24547;SDS011;12713;51.624;4.924;2023-06-04T06:24:08;3.25;;;2.08;;
24547;SDS011;12713;51.624;4.924;2023-06-04T06:26:34;6.90;;;2.85;;
24547;SDS011;12713;51.624;4.924;2023-06-04T06:29:00;7.68;;;2.95;;
24547;SDS011;12713;51.624;4.924;2023-06-04T06:31:26;5.78;;;2.92;;
24547;SDS011;12713;51.624;4.924;2023-06-04T06:33:52;5.05;;;2.60;;
24547;SDS011;12713;51.624;4.924;2023-06-04T06:36:18;3.40;;;2.50;;
24547;SDS011;12713;51.624;4.924;2023-06-04T06:38:45;3.60;;;2.47;;
24547;SDS011;12713;51.624;4.924;2023-06-04T06:41:11;10.02;;;3.05;;
24547;SDS011;12713;51.624;4.924;2023-06-04T06:43:37;5.40;;;2.50;;
24547;SDS011;12713;51.624;4.924;2023-06-04T06:46:03;3.75;;;2.28;;
24547;SDS011;12713;51.624;4.924;2023-06-04T06:48:29;5.47;;;2.47;;
24547;SDS011;12713;51.624;4.924;2023-06-04T06:50:55;6.05;;;2.50;;
24547;SDS011;12713;51.624;4.924;2023-06-04T06:53:21;3.90;;;2.42;;
24547;SDS011;12713;51.624;4.924;2023-06-04T06:55:47;3.90;;;2.63;;
24547;SDS011;12713;51.624;4.924;2023-06-04T06:58:13;4.90;;;3.22;;
24547;SDS011;12713;51.624;4.924;2023-06-04T07:00:40;4.53;;;2.90;;
24547;SDS011;12713;51.624;4.924;2023-06-04T07:03:06;4.00;;;2.42;;
24547;SDS011;12713;51.624;4.924;2023-06-04T07:05:33;6.15;;;2.85;;
24547;SDS011;12713;51.624;4.924;2023-06-04T07:07:59;3.92;;;2.38;;
24547;SDS011;12713;51.624;4.924;2023-06-04T07:10:26;3.90;;;2.58;;
24547;SDS011;12713;51.624;4.924;2023-06-04T07:12:52;6.22;;;2.60;;
24547;SDS011;12713;51.624;4.924;2023-06-04T07:15:18;10.27;;;2.83;;
24547;SDS011;12713;51.624;4.924;2023-06-04T07:17:45;3.65;;;2.67;;
24547;SDS011;12713;51.624;4.924;2023-06-04T07:20:11;6.53;;;3.08;;
24547;SDS011;12713;51.624;4.924;2023-06-04T07:22:37;4.30;;;2.75;;
24547;SDS011;12713;51.624;4.924;2023-06-04T07:25:04;4.45;;;2.92;;
24547;SDS011;12713;51.624;4.924;2023-06-04T07:27:30;6.55;;;2.60;;
24547;SDS011;12713;51.624;4.924;2023-06-04T07:29:56;4.68;;;2.63;;
24547;SDS011;12713;51.624;4.924;2023-06-04T07:32:22;4.18;;;2.63;;
24547;SDS011;12713;51.624;4.924;2023-06-04T07:34:48;5.00;;;2.80;;
24547;SDS011;12713;51.624;4.924;2023-06-04T07:37:14;4.20;;;2.70;;
24547;SDS011;12713;51.624;4.924;2023-06-04T07:39:41;5.20;;;2.65;;
24547;SDS011;12713;51.624;4.924;2023-06-04T07:42:07;6.75;;;2.67;;
24547;SDS011;12713;51.624;4.924;2023-06-04T07:44:33;5.28;;;2.67;;
24547;SDS011;12713;51.624;4.924;2023-06-04T07:46:59;5.82;;;2.75;;
24547;SDS011;12713;51.624;4.924;2023-06-04T07:49:25;2.95;;;2.08;;
24547;SDS011;12713;51.624;4.924;2023-06-04T07:51:51;4.43;;;2.30;;
24547;SDS011;12713;51.624;4.924;2023-06-04T07:54:17;4.40;;;2.47;;
24547;SDS011;12713;51.624;4.924;2023-06-04T07:56:43;5.55;;;2.58;;
24547;SDS011;12713;51.624;4.924;2023-06-04T07:59:09;5.20;;;2.50;;
24547;SDS011;12713;51.624;4.924;2023-06-04T08:01:35;5.63;;;2.78;;
24547;SDS011;12713;51.624;4.924;2023-06-04T08:04:01;4.75;;;2.67;;
24547;SDS011;12713;51.624;4.924;2023-06-04T08:06:28;10.63;;;2.70;;
24547;SDS011;12713;51.624;4.924;2023-06-04T08:08:54;5.78;;;2.90;;
24547;SDS011;12713;51.624;4.924;2023-06-04T08:11:20;6.63;;;2.83;;
24547;SDS011;12713;51.624;4.924;2023-06-04T08:13:49;6.88;;;3.30;;
24547;SDS011;12713;51.624;4.924;2023-06-04T08:16:15;4.18;;;2.53;;
24547;SDS011;12713;51.624;4.924;2023-06-04T08:18:41;4.88;;;2.58;;
24547;SDS011;12713;51.624;4.924;2023-06-04T08:21:08;5.25;;;2.53;;
24547;SDS011;12713;51.624;4.924;2023-06-04T08:23:36;9.27;;;3.00;;
24547;SDS011;12713;51.624;4.924;2023-06-04T08:26:06;5.80;;;2.80;;
24547;SDS011;12713;51.624;4.924;2023-06-04T08:28:32;5.30;;;2.60;;
24547;SDS011;12713;51.624;4.924;2023-06-04T08:30:58;4.07;;;2.35;;
24547;SDS011;12713;51.624;4.924;2023-06-04T08:33:24;7.25;;;2.33;;
24547;SDS011;12713;51.624;4.924;2023-06-04T08:35:50;7.18;;;3.17;;
24547;SDS011;12713;51.624;4.924;2023-06-04T08:38:16;6.65;;;2.70;;
24547;SDS011;12713;51.624;4.924;2023-06-04T08:40:42;3.03;;;2.08;;
24547;SDS011;12713;51.624;4.924;2023-06-04T08:43:08;4.00;;;2.28;;
24547;SDS011;12713;51.624;4.924;2023-06-04T08:45:38;2.95;;;1.85;;
24547;SDS011;12713;51.624;4.924;2023-06-04T08:48:09;4.63;;;2.38;;
24547;SDS011;12713;51.624;4.924;2023-06-04T08:50:39;5.65;;;2.47;;
24547;SDS011;12713;51.624;4.924;2023-06-04T08:53:05;5.60;;;2.90;;
24547;SDS011;12713;51.624;4.924;2023-06-04T08:55:31;4.90;;;2.28;;
24547;SDS011;12713;51.624;4.924;2023-06-04T08:57:57;4.00;;;2.17;;
24547;SDS011;12713;51.624;4.924;2023-06-04T09:00:25;7.35;;;2.30;;
24547;SDS011;12713;51.624;4.924;2023-06-04T09:02:51;5.60;;;2.38;;
24547;SDS011;12713;51.624;4.924;2023-06-04T09:05:22;3.38;;;1.80;;
24547;SDS011;12713;51.624;4.924;2023-06-04T09:07:49;5.47;;;2.80;;
24547;SDS011;12713;51.624;4.924;2023-06-04T09:10:18;3.28;;;2.00;;
24547;SDS011;12713;51.624;4.924;2023-06-04T09:12:46;4.45;;;2.38;;
24547;SDS011;12713;51.624;4.924;2023-06-04T09:15:13;4.40;;;1.88;;
24547;SDS011;12713;51.624;4.924;2023-06-04T09:17:39;4.07;;;2.33;;
24547;SDS011;12713;51.624;4.924;2023-06-04T09:20:05;7.65;;;2.47;;
24547;SDS011;12713;51.624;4.924;2023-06-04T09:22:35;3.63;;;2.20;;
24547;SDS011;12713;51.624;4.924;2023-06-04T09:25:03;3.20;;;1.73;;
24547;SDS011;12713;51.624;4.924;2023-06-04T09:27:36;4.28;;;1.67;;
24547;SDS011;12713;51.624;4.924;2023-06-04T09:30:03;3.08;;;1.60;;
24547;SDS011;12713;51.624;4.924;2023-06-04T09:32:29;4.57;;;2.13;;
24547;SDS011;12713;51.624;4.924;2023-06-04T09:35:15;1.98;;;1.55;;
24547;SDS011;12713;51.624;4.924;2023-06-04T09:37:42;3.67;;;1.70;;
24547;SDS011;12713;51.624;4.924;2023-06-04T09:40:08;9.25;;;1.77;;
24547;SDS011;12713;51.624;4.924;2023-06-04T09:42:44;3.40;;;1.77;;
24547;SDS011;12713;51.624;4.924;2023-06-04T09:45:11;3.67;;;1.88;;
24547;SDS011;12713;51.624;4.924;2023-06-04T09:47:43;2.78;;;1.45;;
24547;SDS011;12713;51.624;4.924;2023-06-04T09:50:10;3.53;;;1.40;;
24547;SDS011;12713;51.624;4.924;2023-06-04T09:52:37;2.72;;;1.63;;
24547;SDS011;12713;51.624;4.924;2023-06-04T09:55:14;3.85;;;1.67;;
24547;SDS011;12713;51.624;4.924;2023-06-04T09:57:44;3.13;;;1.42;;
24547;SDS011;12713;51.624;4.924;2023-06-04T10:00:12;2.25;;;1.20;;
24547;SDS011;12713;51.624;4.924;2023-06-04T10:02:39;3.72;;;1.38;;
24547;SDS011;12713;51.624;4.924;2023-06-04T10:05:07;2.97;;;1.30;;
24547;SDS011;12713;51.624;4.924;2023-06-04T10:07:34;4.75;;;1.30;;
24547;SDS011;12713;51.624;4.924;2023-06-04T10:10:00;1.80;;;1.25;;
24547;SDS011;12713;51.624;4.924;2023-06-04T10:12:29;5.20;;;1.52;;
24547;SDS011;12713;51.624;4.924;2023-06-04T10:14:58;4.43;;;1.75;;
24547;SDS011;12713;51.624;4.924;2023-06-04T10:17:28;2.47;;;1.35;;
24547;SDS011;12713;51.624;4.924;2023-06-04T10:19:55;2.38;;;1.00;;
24547;SDS011;12713;51.624;4.924;2023-06-04T10:22:21;2.35;;;1.30;;
24547;SDS011;12713;51.624;4.924;2023-06-04T10:24:48;2.78;;;1.10;;
24547;SDS011;12713;51.624;4.924;2023-06-04T10:27:14;5.28;;;1.70;;
24547;SDS011;12713;51.624;4.924;2023-06-04T10:29:42;2.15;;;1.27;;
24547;SDS011;12713;51.624;4.924;2023-06-04T10:32:08;3.40;;;1.45;;
24547;SDS011;12713;51.624;4.924;2023-06-04T10:34:34;4.88;;;1.00;;
24547;SDS011;12713;51.624;4.924;2023-06-04T10:37:01;3.10;;;1.02;;
24547;SDS011;12713;51.624;4.924;2023-06-04T10:39:28;2.85;;;1.00;;
24547;SDS011;12713;51.624;4.924;2023-06-04T10:42:01;4.47;;;1.08;;
24547;SDS011;12713;51.624;4.924;2023-06-04T10:44:28;1.63;;;1.20;;
24547;SDS011;12713;51.624;4.924;2023-06-04T10:46:56;1.95;;;1.38;;
24547;SDS011;12713;51.624;4.924;2023-06-04T10:49:26;2.10;;;1.20;;
24547;SDS011;12713;51.624;4.924;2023-06-04T10:51:53;1.33;;;0.90;;
24547;SDS011;12713;51.624;4.924;2023-06-04T10:54:25;3.90;;;1.35;;
24547;SDS011;12713;51.624;4.924;2023-06-04T10:56:54;2.17;;;1.38;;
24547;SDS011;12713;51.624;4.924;2023-06-04T10:59:20;4.85;;;1.10;;
24547;SDS011;12713;51.624;4.924;2023-06-04T11:01:47;3.83;;;1.25;;
24547;SDS011;12713;51.624;4.924;2023-06-04T11:04:20;3.17;;;1.40;;
24547;SDS011;12713;51.624;4.924;2023-06-04T11:06:46;3.67;;;1.67;;
24547;SDS011;12713;51.624;4.924;2023-06-04T11:09:13;3.83;;;1.17;;
24547;SDS011;12713;51.624;4.924;2023-06-04T11:11:41;2.22;;;1.48;;
24547;SDS011;12713;51.624;4.924;2023-06-04T11:14:08;2.15;;;1.08;;
24547;SDS011;12713;51.624;4.924;2023-06-04T11:16:35;1.70;;;1.10;;
24547;SDS011;12713;51.624;4.924;2023-06-04T11:19:01;3.70;;;1.38;;
24547;SDS011;12713;51.624;4.924;2023-06-04T11:21:28;4.78;;;1.30;;
24547;SDS011;12713;51.624;4.924;2023-06-04T11:23:54;1.38;;;1.10;;
24547;SDS011;12713;51.624;4.924;2023-06-04T11:26:21;2.38;;;1.30;;
24547;SDS011;12713;51.624;4.924;2023-06-04T11:28:49;2.55;;;1.42;;
24547;SDS011;12713;51.624;4.924;2023-06-04T11:31:15;2.35;;;1.00;;
24547;SDS011;12713;51.624;4.924;2023-06-04T11:33:44;1.85;;;1.13;;
24547;SDS011;12713;51.624;4.924;2023-06-04T11:36:10;1.63;;;1.27;;
24547;SDS011;12713;51.624;4.924;2023-06-04T11:38:36;3.30;;;1.35;;
24547;SDS011;12713;51.624;4.924;2023-06-04T11:41:02;2.30;;;1.40;;
24547;SDS011;12713;51.624;4.924;2023-06-04T11:43:31;5.30;;;1.17;;
24547;SDS011;12713;51.624;4.924;2023-06-04T11:45:58;1.75;;;1.30;;
24547;SDS011;12713;51.624;4.924;2023-06-04T11:48:24;2.38;;;1.40;;
24547;SDS011;12713;51.624;4.924;2023-06-04T11:50:50;2.30;;;1.20;;
24547;SDS011;12713;51.624;4.924;2023-06-04T11:53:16;1.80;;;1.30;;
24547;SDS011;12713;51.624;4.924;2023-06-04T11:55:43;1.58;;;1.20;;
24547;SDS011;12713;51.624;4.924;2023-06-04T11:58:09;4.15;;;1.10;;
24547;SDS011;12713;51.624;4.924;2023-06-04T12:00:35;2.97;;;1.20;;
24547;SDS011;12713;51.624;4.924;2023-06-04T12:03:01;2.15;;;1.20;;
24547;SDS011;12713;51.624;4.924;2023-06-04T12:05:30;8.23;;;1.58;;
24547;SDS011;12713;51.624;4.924;2023-06-04T12:08:03;4.70;;;1.25;;
24547;SDS011;12713;51.624;4.924;2023-06-04T12:10:36;2.30;;;1.25;;
24547;SDS011;12713;51.624;4.924;2023-06-04T12:13:02;4.07;;;1.13;;
24547;SDS011;12713;51.624;4.924;2023-06-04T12:15:28;1.98;;;1.00;;
24547;SDS011;12713;51.624;4.924;2023-06-04T12:17:54;3.38;;;1.40;;
24547;SDS011;12713;51.624;4.924;2023-06-04T12:20:39;3.03;;;1.05;;
24547;SDS011;12713;51.624;4.924;2023-06-04T12:23:06;4.90;;;1.58;;
24547;SDS011;12713;51.624;4.924;2023-06-04T12:25:33;3.40;;;1.50;;
24547;SDS011;12713;51.624;4.924;2023-06-04T12:27:59;4.38;;;1.20;;
24547;SDS011;12713;51.624;4.924;2023-06-04T12:30:36;5.60;;;1.58;;
24547;SDS011;12713;51.624;4.924;2023-06-04T12:33:02;2.38;;;1.30;;
24547;SDS011;12713;51.624;4.924;2023-06-04T12:35:28;4.53;;;1.77;;
24547;SDS011;12713;51.624;4.924;2023-06-04T12:37:54;5.55;;;1.60;;
24547;SDS011;12713;51.624;4.924;2023-06-04T12:40:21;3.80;;;1.40;;
24547;SDS011;12713;51.624;4.924;2023-06-04T12:42:49;1.92;;;1.08;;
24547;SDS011;12713;51.624;4.924;2023-06-04T12:45:15;1.73;;;1.30;;
24547;SDS011;12713;51.624;4.924;2023-06-04T12:47:41;1.85;;;1.45;;
24547;SDS011;12713;51.624;4.924;2023-06-04T12:50:07;4.20;;;1.50;;
24547;SDS011;12713;51.624;4.924;2023-06-04T12:52:33;2.55;;;1.58;;
24547;SDS011;12713;51.624;4.924;2023-06-04T12:55:00;3.80;;;1.27;;
24547;SDS011;12713;51.624;4.924;2023-06-04T12:57:26;3.40;;;1.27;;
24547;SDS011;12713;51.624;4.924;2023-06-04T12:59:52;2.47;;;1.70;;
24547;SDS011;12713;51.624;4.924;2023-06-04T13:02:18;3.42;;;1.23;;
24547;SDS011;12713;51.624;4.924;2023-06-04T13:04:44;4.10;;;1.20;;
24547;SDS011;12713;51.624;4.924;2023-06-04T13:07:11;3.40;;;1.50;;
24547;SDS011;12713;51.624;4.924;2023-06-04T13:09:37;3.05;;;1.25;;
24547;SDS011;12713;51.624;4.924;2023-06-04T13:12:03;3.00;;;1.20;;
24547;SDS011;12713;51.624;4.924;2023-06-04T13:14:30;5.75;;;1.70;;
24547;SDS011;12713;51.624;4.924;2023-06-04T13:17:00;1.98;;;1.20;;
24547;SDS011;12713;51.624;4.924;2023-06-04T13:19:26;4.57;;;1.80;;
24547;SDS011;12713;51.624;4.924;2023-06-04T13:21:52;2.60;;;1.50;;
24547;SDS011;12713;51.624;4.924;2023-06-04T13:24:18;3.78;;;1.33;;
24547;SDS011;12713;51.624;4.924;2023-06-04T13:26:44;2.72;;;1.30;;
24547;SDS011;12713;51.624;4.924;2023-06-04T13:29:10;1.85;;;1.27;;
24547;SDS011;12713;51.624;4.924;2023-06-04T13:31:37;1.48;;;1.08;;
24547;SDS011;12713;51.624;4.924;2023-06-04T13:34:05;4.80;;;1.30;;
24547;SDS011;12713;51.624;4.924;2023-06-04T13:36:31;4.00;;;1.83;;
24547;SDS011;12713;51.624;4.924;2023-06-04T13:38:57;3.53;;;1.50;;
24547;SDS011;12713;51.624;4.924;2023-06-04T13:41:23;4.93;;;1.70;;
24547;SDS011;12713;51.624;4.924;2023-06-04T13:43:50;2.33;;;1.35;;
24547;SDS011;12713;51.624;4.924;2023-06-04T13:46:16;2.00;;;1.27;;
24547;SDS011;12713;51.624;4.924;2023-06-04T13:48:42;1.88;;;1.52;;
24547;SDS011;12713;51.624;4.924;2023-06-04T13:51:08;1.70;;;1.27;;
24547;SDS011;12713;51.624;4.924;2023-06-04T13:53:34;1.73;;;1.10;;
24547;SDS011;12713;51.624;4.924;2023-06-04T13:56:00;4.85;;;1.45;;
24547;SDS011;12713;51.624;4.924;2023-06-04T13:58:26;1.75;;;1.38;;
24547;SDS011;12713;51.624;4.924;2023-06-04T14:00:53;2.80;;;1.63;;
24547;SDS011;12713;51.624;4.924;2023-06-04T14:03:19;2.83;;;1.48;;
24547;SDS011;12713;51.624;4.924;2023-06-04T14:05:45;6.55;;;1.58;;
24547;SDS011;12713;51.624;4.924;2023-06-04T14:08:11;3.95;;;1.58;;
24547;SDS011;12713;51.624;4.924;2023-06-04T14:10:37;2.15;;;1.70;;
24547;SDS011;12713;51.624;4.924;2023-06-04T14:13:09;3.35;;;1.40;;
24547;SDS011;12713;51.624;4.924;2023-06-04T14:15:38;2.10;;;1.52;;
24547;SDS011;12713;51.624;4.924;2023-06-04T14:18:12;2.15;;;1.60;;
24547;SDS011;12713;51.624;4.924;2023-06-04T14:20:38;3.38;;;1.33;;
24547;SDS011;12713;51.624;4.924;2023-06-04T14:23:04;2.55;;;2.30;;
24547;SDS011;12713;51.624;4.924;2023-06-04T14:25:30;3.45;;;2.20;;
24547;SDS011;12713;51.624;4.924;2023-06-04T14:27:57;2.83;;;1.30;;
24547;SDS011;12713;51.624;4.924;2023-06-04T14:30:23;2.08;;;1.30;;
24547;SDS011;12713;51.624;4.924;2023-06-04T14:32:49;3.30;;;1.30;;
24547;SDS011;12713;51.624;4.924;2023-06-04T14:35:15;3.75;;;1.67;;
24547;SDS011;12713;51.624;4.924;2023-06-04T14:37:41;3.20;;;2.17;;
24547;SDS011;12713;51.624;4.924;2023-06-04T14:40:07;4.60;;;1.50;;
24547;SDS011;12713;51.624;4.924;2023-06-04T14:42:34;5.50;;;1.33;;
24547;SDS011;12713;51.624;4.924;2023-06-04T14:45:00;3.75;;;1.73;;
24547;SDS011;12713;51.624;4.924;2023-06-04T14:47:26;3.25;;;1.80;;